sensor_id;sensor_type;location;lat;lon;timestamp;P1;durP1;ratioP1;P2;durP2;ratioP2
76459;SDS011;65299;46.084;18.762;2023-04-25T00:00:58;2.73;;;1.27;;
76459;SDS011;65299;46.084;18.762;2023-04-25T00:03:58;2.40;;;0.77;;
76459;SDS011;65299;46.084;18.762;2023-04-25T00:06:59;0.97;;;0.60;;
76459;SDS011;65299;46.084;18.762;2023-04-25T00:10:01;2.28;;;0.70;;
76459;SDS011;65299;46.084;18.762;2023-04-25T00:13:02;2.78;;;0.50;;
76459;SDS011;65299;46.084;18.762;2023-04-25T00:16:03;2.43;;;0.60;;
76459;SDS011;65299;46.084;18.762;2023-04-25T00:19:04;1.92;;;0.90;;
76459;SDS011;65299;46.084;18.762;2023-04-25T00:22:05;1.67;;;0.55;;
76459;SDS011;65299;46.084;18.762;2023-04-25T00:25:05;1.40;;;0.63;;
76459;SDS011;65299;46.084;18.762;2023-04-25T00:28:06;1.17;;;0.80;;
76459;SDS011;65299;46.084;18.762;2023-04-25T00:31:07;2.07;;;1.10;;
76459;SDS011;65299;46.084;18.762;2023-04-25T00:34:07;1.60;;;1.00;;
76459;SDS011;65299;46.084;18.762;2023-04-25T00:37:08;1.23;;;0.98;;
76459;SDS011;65299;46.084;18.762;2023-04-25T00:40:08;4.20;;;1.37;;
76459;SDS011;65299;46.084;18.762;2023-04-25T00:43:10;1.17;;;0.85;;
76459;SDS011;65299;46.084;18.762;2023-04-25T00:46:10;1.20;;;0.80;;
76459;SDS011;65299;46.084;18.762;2023-04-25T00:49:11;1.08;;;0.68;;
76459;SDS011;65299;46.084;18.762;2023-04-25T00:52:15;3.40;;;1.23;;
76459;SDS011;65299;46.084;18.762;2023-04-25T00:55:15;1.40;;;1.00;;
76459;SDS011;65299;46.084;18.762;2023-04-25T00:58:19;2.13;;;1.10;;
76459;SDS011;65299;46.084;18.762;2023-04-25T01:01:20;2.20;;;1.02;;
76459;SDS011;65299;46.084;18.762;2023-04-25T01:04:21;3.90;;;1.03;;
76459;SDS011;65299;46.084;18.762;2023-04-25T01:07:21;1.63;;;0.93;;
76459;SDS011;65299;46.084;18.762;2023-04-25T01:10:22;1.00;;;0.60;;
76459;SDS011;65299;46.084;18.762;2023-04-25T01:13:22;2.77;;;1.00;;
76459;SDS011;65299;46.084;18.762;2023-04-25T01:16:23;1.43;;;0.97;;
76459;SDS011;65299;46.084;18.762;2023-04-25T01:19:24;2.17;;;0.80;;
76459;SDS011;65299;46.084;18.762;2023-04-25T01:22:24;3.57;;;1.50;;
76459;SDS011;65299;46.084;18.762;2023-04-25T01:25:25;2.78;;;1.55;;
76459;SDS011;65299;46.084;18.762;2023-04-25T01:28:26;4.18;;;1.75;;
76459;SDS011;65299;46.084;18.762;2023-04-25T01:31:27;2.30;;;1.60;;
76459;SDS011;65299;46.084;18.762;2023-04-25T01:34:28;3.00;;;1.55;;
76459;SDS011;65299;46.084;18.762;2023-04-25T01:37:29;4.32;;;1.80;;
76459;SDS011;65299;46.084;18.762;2023-04-25T01:40:30;3.03;;;1.37;;
76459;SDS011;65299;46.084;18.762;2023-04-25T01:43:31;2.22;;;1.30;;
76459;SDS011;65299;46.084;18.762;2023-04-25T01:46:32;2.03;;;1.20;;
76459;SDS011;65299;46.084;18.762;2023-04-25T01:49:33;3.67;;;1.60;;
76459;SDS011;65299;46.084;18.762;2023-04-25T01:52:34;2.40;;;2.07;;
76459;SDS011;65299;46.084;18.762;2023-04-25T01:55:34;2.47;;;1.60;;
76459;SDS011;65299;46.084;18.762;2023-04-25T01:58:35;2.23;;;1.77;;
76459;SDS011;65299;46.084;18.762;2023-04-25T02:01:35;2.57;;;1.60;;
76459;SDS011;65299;46.084;18.762;2023-04-25T02:04:35;2.70;;;1.53;;
76459;SDS011;65299;46.084;18.762;2023-04-25T02:07:36;2.28;;;1.45;;
76459;SDS011;65299;46.084;18.762;2023-04-25T02:10:37;2.35;;;1.65;;
76459;SDS011;65299;46.084;18.762;2023-04-25T02:13:37;2.23;;;1.43;;
76459;SDS011;65299;46.084;18.762;2023-04-25T02:16:38;2.37;;;1.80;;
76459;SDS011;65299;46.084;18.762;2023-04-25T02:19:39;3.70;;;2.00;;
76459;SDS011;65299;46.084;18.762;2023-04-25T02:22:39;3.58;;;1.50;;
76459;SDS011;65299;46.084;18.762;2023-04-25T02:25:40;3.50;;;2.20;;
76459;SDS011;65299;46.084;18.762;2023-04-25T02:28:40;3.07;;;2.00;;
76459;SDS011;65299;46.084;18.762;2023-04-25T02:31:40;2.38;;;1.75;;
76459;SDS011;65299;46.084;18.762;2023-04-25T02:34:41;2.90;;;2.00;;
76459;SDS011;65299;46.084;18.762;2023-04-25T02:37:41;2.00;;;1.53;;
76459;SDS011;65299;46.084;18.762;2023-04-25T02:40:42;2.45;;;1.90;;
76459;SDS011;65299;46.084;18.762;2023-04-25T02:43:43;3.50;;;1.63;;
76459;SDS011;65299;46.084;18.762;2023-04-25T02:46:43;4.53;;;1.70;;
76459;SDS011;65299;46.084;18.762;2023-04-25T02:49:44;3.00;;;1.73;;
76459;SDS011;65299;46.084;18.762;2023-04-25T02:52:45;2.73;;;1.60;;
76459;SDS011;65299;46.084;18.762;2023-04-25T02:55:45;4.85;;;2.10;;
76459;SDS011;65299;46.084;18.762;2023-04-25T02:58:46;2.47;;;1.87;;
76459;SDS011;65299;46.084;18.762;2023-04-25T03:01:46;2.37;;;1.60;;
76459;SDS011;65299;46.084;18.762;2023-04-25T03:04:47;3.97;;;1.85;;
76459;SDS011;65299;46.084;18.762;2023-04-25T03:07:47;3.73;;;1.90;;
76459;SDS011;65299;46.084;18.762;2023-04-25T03:10:48;3.13;;;2.10;;
76459;SDS011;65299;46.084;18.762;2023-04-25T03:13:50;2.70;;;1.83;;
76459;SDS011;65299;46.084;18.762;2023-04-25T03:16:50;3.00;;;1.85;;
76459;SDS011;65299;46.084;18.762;2023-04-25T03:19:50;2.60;;;1.80;;
76459;SDS011;65299;46.084;18.762;2023-04-25T03:22:51;5.37;;;1.53;;
76459;SDS011;65299;46.084;18.762;2023-04-25T03:25:51;3.27;;;1.83;;
76459;SDS011;65299;46.084;18.762;2023-04-25T03:28:52;2.60;;;1.90;;
76459;SDS011;65299;46.084;18.762;2023-04-25T03:31:52;3.13;;;1.70;;
76459;SDS011;65299;46.084;18.762;2023-04-25T03:34:53;6.93;;;1.87;;
76459;SDS011;65299;46.084;18.762;2023-04-25T03:37:53;2.33;;;1.33;;
76459;SDS011;65299;46.084;18.762;2023-04-25T03:40:53;1.90;;;1.40;;
76459;SDS011;65299;46.084;18.762;2023-04-25T03:43:55;3.03;;;1.77;;
76459;SDS011;65299;46.084;18.762;2023-04-25T03:46:55;3.20;;;1.53;;
76459;SDS011;65299;46.084;18.762;2023-04-25T03:49:56;2.17;;;1.30;;
76459;SDS011;65299;46.084;18.762;2023-04-25T03:52:56;3.77;;;1.63;;
76459;SDS011;65299;46.084;18.762;2023-04-25T03:55:56;3.63;;;1.70;;
76459;SDS011;65299;46.084;18.762;2023-04-25T03:58:57;2.73;;;1.30;;
76459;SDS011;65299;46.084;18.762;2023-04-25T04:01:57;3.25;;;1.63;;
76459;SDS011;65299;46.084;18.762;2023-04-25T04:04:58;2.40;;;1.67;;
76459;SDS011;65299;46.084;18.762;2023-04-25T04:07:58;1.63;;;1.27;;
76459;SDS011;65299;46.084;18.762;2023-04-25T04:10:59;3.03;;;1.20;;
76459;SDS011;65299;46.084;18.762;2023-04-25T04:13:59;2.97;;;1.40;;
76459;SDS011;65299;46.084;18.762;2023-04-25T04:16:59;4.37;;;1.60;;
76459;SDS011;65299;46.084;18.762;2023-04-25T04:20:00;4.10;;;1.30;;
76459;SDS011;65299;46.084;18.762;2023-04-25T04:23:01;2.60;;;1.70;;
76459;SDS011;65299;46.084;18.762;2023-04-25T04:26:01;1.77;;;1.30;;
76459;SDS011;65299;46.084;18.762;2023-04-25T04:29:02;1.67;;;1.10;;
76459;SDS011;65299;46.084;18.762;2023-04-25T04:32:02;3.43;;;1.57;;
76459;SDS011;65299;46.084;18.762;2023-04-25T04:35:03;2.43;;;1.20;;
76459;SDS011;65299;46.084;18.762;2023-04-25T04:38:04;1.60;;;1.03;;
76459;SDS011;65299;46.084;18.762;2023-04-25T04:41:04;1.83;;;1.15;;
76459;SDS011;65299;46.084;18.762;2023-04-25T04:44:05;3.33;;;1.53;;
76459;SDS011;65299;46.084;18.762;2023-04-25T04:47:06;1.95;;;1.20;;
76459;SDS011;65299;46.084;18.762;2023-04-25T04:50:07;1.27;;;1.00;;
76459;SDS011;65299;46.084;18.762;2023-04-25T04:53:09;2.00;;;1.48;;
76459;SDS011;65299;46.084;18.762;2023-04-25T04:56:09;2.73;;;1.00;;
76459;SDS011;65299;46.084;18.762;2023-04-25T04:59:10;2.65;;;1.10;;
76459;SDS011;65299;46.084;18.762;2023-04-25T05:02:10;1.80;;;0.90;;
76459;SDS011;65299;46.084;18.762;2023-04-25T05:05:11;3.03;;;1.13;;
76459;SDS011;65299;46.084;18.762;2023-04-25T05:08:11;4.10;;;1.17;;
76459;SDS011;65299;46.084;18.762;2023-04-25T05:11:12;2.85;;;1.50;;
76459;SDS011;65299;46.084;18.762;2023-04-25T05:14:12;1.47;;;1.00;;
76459;SDS011;65299;46.084;18.762;2023-04-25T05:17:12;1.37;;;0.90;;
76459;SDS011;65299;46.084;18.762;2023-04-25T05:20:13;1.73;;;1.10;;
76459;SDS011;65299;46.084;18.762;2023-04-25T05:23:14;2.33;;;1.10;;
76459;SDS011;65299;46.084;18.762;2023-04-25T05:26:14;2.37;;;1.10;;
76459;SDS011;65299;46.084;18.762;2023-04-25T05:29:14;3.63;;;0.80;;
76459;SDS011;65299;46.084;18.762;2023-04-25T05:32:15;1.83;;;1.20;;
76459;SDS011;65299;46.084;18.762;2023-04-25T05:35:15;1.67;;;0.77;;
76459;SDS011;65299;46.084;18.762;2023-04-25T05:38:16;2.30;;;1.00;;
76459;SDS011;65299;46.084;18.762;2023-04-25T05:41:16;1.33;;;0.80;;
76459;SDS011;65299;46.084;18.762;2023-04-25T05:44:17;2.23;;;1.20;;
76459;SDS011;65299;46.084;18.762;2023-04-25T05:47:17;1.50;;;0.80;;
76459;SDS011;65299;46.084;18.762;2023-04-25T05:50:17;10.32;;;1.35;;
76459;SDS011;65299;46.084;18.762;2023-04-25T05:53:18;1.70;;;1.10;;
76459;SDS011;65299;46.084;18.762;2023-04-25T05:56:19;1.95;;;1.05;;
76459;SDS011;65299;46.084;18.762;2023-04-25T05:59:20;1.83;;;1.20;;
76459;SDS011;65299;46.084;18.762;2023-04-25T06:02:20;2.03;;;1.20;;
76459;SDS011;65299;46.084;18.762;2023-04-25T06:05:21;2.92;;;1.38;;
76459;SDS011;65299;46.084;18.762;2023-04-25T06:08:21;1.67;;;1.27;;
76459;SDS011;65299;46.084;18.762;2023-04-25T06:11:22;2.37;;;1.40;;
76459;SDS011;65299;46.084;18.762;2023-04-25T06:14:22;4.50;;;1.00;;
76459;SDS011;65299;46.084;18.762;2023-04-25T06:17:23;2.72;;;1.50;;
76459;SDS011;65299;46.084;18.762;2023-04-25T06:20:23;3.80;;;1.03;;
76459;SDS011;65299;46.084;18.762;2023-04-25T06:23:24;3.33;;;1.17;;
76459;SDS011;65299;46.084;18.762;2023-04-25T06:26:25;2.27;;;1.00;;
76459;SDS011;65299;46.084;18.762;2023-04-25T06:29:25;4.10;;;1.63;;
76459;SDS011;65299;46.084;18.762;2023-04-25T06:32:25;2.20;;;1.13;;
76459;SDS011;65299;46.084;18.762;2023-04-25T06:35:27;1.35;;;1.10;;
76459;SDS011;65299;46.084;18.762;2023-04-25T06:38:28;2.20;;;1.00;;
76459;SDS011;65299;46.084;18.762;2023-04-25T06:41:28;2.00;;;1.42;;
76459;SDS011;65299;46.084;18.762;2023-04-25T06:44:28;2.33;;;1.40;;
76459;SDS011;65299;46.084;18.762;2023-04-25T06:47:29;4.07;;;1.85;;
76459;SDS011;65299;46.084;18.762;2023-04-25T06:50:30;1.70;;;1.20;;
76459;SDS011;65299;46.084;18.762;2023-04-25T06:53:30;2.53;;;1.40;;
76459;SDS011;65299;46.084;18.762;2023-04-25T06:56:31;1.90;;;0.90;;
76459;SDS011;65299;46.084;18.762;2023-04-25T06:59:31;1.93;;;1.10;;
76459;SDS011;65299;46.084;18.762;2023-04-25T07:02:32;2.05;;;0.65;;
76459;SDS011;65299;46.084;18.762;2023-04-25T07:05:33;4.43;;;1.00;;
76459;SDS011;65299;46.084;18.762;2023-04-25T07:08:33;2.43;;;1.00;;
76459;SDS011;65299;46.084;18.762;2023-04-25T07:11:34;2.08;;;1.17;;
76459;SDS011;65299;46.084;18.762;2023-04-25T07:14:34;2.97;;;1.43;;
76459;SDS011;65299;46.084;18.762;2023-04-25T07:17:35;2.60;;;1.60;;
76459;SDS011;65299;46.084;18.762;2023-04-25T07:20:35;2.53;;;1.50;;
76459;SDS011;65299;46.084;18.762;2023-04-25T07:23:36;4.05;;;1.70;;
76459;SDS011;65299;46.084;18.762;2023-04-25T07:26:37;4.20;;;1.42;;
76459;SDS011;65299;46.084;18.762;2023-04-25T07:29:37;2.97;;;1.47;;
76459;SDS011;65299;46.084;18.762;2023-04-25T07:32:38;5.17;;;1.60;;
76459;SDS011;65299;46.084;18.762;2023-04-25T07:35:39;5.00;;;1.58;;
76459;SDS011;65299;46.084;18.762;2023-04-25T07:38:39;3.43;;;1.27;;
76459;SDS011;65299;46.084;18.762;2023-04-25T07:41:40;7.57;;;1.90;;
76459;SDS011;65299;46.084;18.762;2023-04-25T07:44:40;2.83;;;1.80;;
76459;SDS011;65299;46.084;18.762;2023-04-25T07:47:42;5.13;;;2.10;;
76459;SDS011;65299;46.084;18.762;2023-04-25T07:50:42;3.17;;;1.92;;
76459;SDS011;65299;46.084;18.762;2023-04-25T07:53:43;2.50;;;1.00;;
76459;SDS011;65299;46.084;18.762;2023-04-25T07:56:43;2.57;;;1.60;;
76459;SDS011;65299;46.084;18.762;2023-04-25T07:59:44;3.72;;;1.60;;
76459;SDS011;65299;46.084;18.762;2023-04-25T08:02:44;2.30;;;1.20;;
76459;SDS011;65299;46.084;18.762;2023-04-25T08:05:45;3.90;;;1.45;;
76459;SDS011;65299;46.084;18.762;2023-04-25T08:08:46;1.93;;;1.50;;
76459;SDS011;65299;46.084;18.762;2023-04-25T08:11:46;2.77;;;1.90;;
76459;SDS011;65299;46.084;18.762;2023-04-25T08:14:47;3.08;;;1.65;;
76459;SDS011;65299;46.084;18.762;2023-04-25T08:17:47;2.47;;;1.67;;
76459;SDS011;65299;46.084;18.762;2023-04-25T08:20:48;3.03;;;1.83;;
76459;SDS011;65299;46.084;18.762;2023-04-25T08:23:48;3.42;;;1.60;;
76459;SDS011;65299;46.084;18.762;2023-04-25T08:26:48;3.03;;;1.77;;
76459;SDS011;65299;46.084;18.762;2023-04-25T08:29:49;2.80;;;1.70;;
76459;SDS011;65299;46.084;18.762;2023-04-25T08:32:50;2.83;;;1.80;;
76459;SDS011;65299;46.084;18.762;2023-04-25T08:35:51;2.20;;;1.63;;
76459;SDS011;65299;46.084;18.762;2023-04-25T08:38:51;2.67;;;1.20;;
76459;SDS011;65299;46.084;18.762;2023-04-25T08:41:52;2.57;;;1.57;;
76459;SDS011;65299;46.084;18.762;2023-04-25T08:44:53;2.13;;;1.73;;
76459;SDS011;65299;46.084;18.762;2023-04-25T08:47:53;3.63;;;1.80;;
76459;SDS011;65299;46.084;18.762;2023-04-25T08:50:57;3.33;;;1.70;;
76459;SDS011;65299;46.084;18.762;2023-04-25T08:54:08;4.00;;;2.20;;
76459;SDS011;65299;46.084;18.762;2023-04-25T08:57:10;4.57;;;2.25;;
76459;SDS011;65299;46.084;18.762;2023-04-25T09:00:12;2.47;;;1.73;;
76459;SDS011;65299;46.084;18.762;2023-04-25T09:03:13;2.60;;;1.77;;
76459;SDS011;65299;46.084;18.762;2023-04-25T09:06:14;1.60;;;1.38;;
76459;SDS011;65299;46.084;18.762;2023-04-25T09:09:16;1.42;;;1.02;;
76459;SDS011;65299;46.084;18.762;2023-04-25T09:12:18;3.27;;;1.77;;
76459;SDS011;65299;46.084;18.762;2023-04-25T09:15:19;2.80;;;1.80;;
76459;SDS011;65299;46.084;18.762;2023-04-25T09:21:27;1.55;;;1.27;;
76459;SDS011;65299;46.084;18.762;2023-04-25T09:24:35;4.13;;;1.63;;
76459;SDS011;65299;46.084;18.762;2023-04-25T09:27:48;2.55;;;1.80;;
76459;SDS011;65299;46.084;18.762;2023-04-25T09:30:56;2.50;;;1.80;;
76459;SDS011;65299;46.084;18.762;2023-04-25T09:34:02;1.83;;;1.30;;
76459;SDS011;65299;46.084;18.762;2023-04-25T09:37:25;2.03;;;1.50;;
76459;SDS011;65299;46.084;18.762;2023-04-25T09:40:27;5.22;;;1.33;;
76459;SDS011;65299;46.084;18.762;2023-04-25T09:43:30;3.33;;;1.58;;
76459;SDS011;65299;46.084;18.762;2023-04-25T09:46:34;2.43;;;1.73;;
76459;SDS011;65299;46.084;18.762;2023-04-25T09:49:41;2.13;;;1.27;;
76459;SDS011;65299;46.084;18.762;2023-04-25T09:52:42;1.65;;;1.25;;
76459;SDS011;65299;46.084;18.762;2023-04-25T09:55:43;3.85;;;1.50;;
76459;SDS011;65299;46.084;18.762;2023-04-25T09:58:45;2.73;;;1.13;;
76459;SDS011;65299;46.084;18.762;2023-04-25T10:01:47;5.20;;;0.77;;
76459;SDS011;65299;46.084;18.762;2023-04-25T10:04:49;1.80;;;0.90;;
76459;SDS011;65299;46.084;18.762;2023-04-25T10:07:52;2.40;;;1.42;;
76459;SDS011;65299;46.084;18.762;2023-04-25T10:10:53;3.67;;;1.30;;
76459;SDS011;65299;46.084;18.762;2023-04-25T10:13:53;3.63;;;1.67;;
76459;SDS011;65299;46.084;18.762;2023-04-25T10:16:56;1.92;;;1.35;;
76459;SDS011;65299;46.084;18.762;2023-04-25T10:19:58;1.47;;;1.13;;
76459;SDS011;65299;46.084;18.762;2023-04-25T10:23:11;2.38;;;1.02;;
76459;SDS011;65299;46.084;18.762;2023-04-25T10:26:13;2.08;;;1.25;;
76459;SDS011;65299;46.084;18.762;2023-04-25T10:29:21;1.98;;;1.35;;
76459;SDS011;65299;46.084;18.762;2023-04-25T10:32:23;1.92;;;1.20;;
76459;SDS011;65299;46.084;18.762;2023-04-25T10:35:27;2.70;;;1.30;;
76459;SDS011;65299;46.084;18.762;2023-04-25T10:38:30;2.70;;;1.00;;
76459;SDS011;65299;46.084;18.762;2023-04-25T10:41:30;1.67;;;0.80;;
76459;SDS011;65299;46.084;18.762;2023-04-25T10:44:31;1.40;;;0.77;;
76459;SDS011;65299;46.084;18.762;2023-04-25T10:47:35;2.53;;;0.93;;
76459;SDS011;65299;46.084;18.762;2023-04-25T10:50:37;1.58;;;0.70;;
76459;SDS011;65299;46.084;18.762;2023-04-25T10:53:39;1.48;;;1.00;;
76459;SDS011;65299;46.084;18.762;2023-04-25T10:56:41;1.80;;;1.20;;
76459;SDS011;65299;46.084;18.762;2023-04-25T10:59:44;3.72;;;1.33;;
76459;SDS011;65299;46.084;18.762;2023-04-25T11:02:48;1.77;;;1.20;;
76459;SDS011;65299;46.084;18.762;2023-04-25T11:05:52;2.28;;;0.77;;
76459;SDS011;65299;46.084;18.762;2023-04-25T11:08:54;1.75;;;0.98;;
76459;SDS011;65299;46.084;18.762;2023-04-25T11:11:55;1.57;;;0.97;;
76459;SDS011;65299;46.084;18.762;2023-04-25T11:15:00;4.32;;;1.40;;
76459;SDS011;65299;46.084;18.762;2023-04-25T11:18:07;1.10;;;0.82;;
76459;SDS011;65299;46.084;18.762;2023-04-25T11:21:07;3.07;;;1.40;;
76459;SDS011;65299;46.084;18.762;2023-04-25T11:24:08;4.60;;;1.03;;
76459;SDS011;65299;46.084;18.762;2023-04-25T11:27:08;2.47;;;1.48;;
76459;SDS011;65299;46.084;18.762;2023-04-25T11:30:09;2.40;;;0.70;;
76459;SDS011;65299;46.084;18.762;2023-04-25T11:33:11;2.22;;;0.77;;
76459;SDS011;65299;46.084;18.762;2023-04-25T11:36:11;2.07;;;1.00;;
76459;SDS011;65299;46.084;18.762;2023-04-25T11:39:12;2.47;;;1.20;;
76459;SDS011;65299;46.084;18.762;2023-04-25T11:42:12;1.67;;;1.30;;
76459;SDS011;65299;46.084;18.762;2023-04-25T11:45:13;2.03;;;1.07;;
76459;SDS011;65299;46.084;18.762;2023-04-25T11:48:14;0.98;;;0.68;;
76459;SDS011;65299;46.084;18.762;2023-04-25T11:51:15;1.93;;;0.90;;
76459;SDS011;65299;46.084;18.762;2023-04-25T11:54:15;2.07;;;1.40;;
76459;SDS011;65299;46.084;18.762;2023-04-25T11:57:18;2.05;;;1.20;;
76459;SDS011;65299;46.084;18.762;2023-04-25T12:00:20;2.42;;;1.00;;
76459;SDS011;65299;46.084;18.762;2023-04-25T12:03:21;2.33;;;1.30;;
76459;SDS011;65299;46.084;18.762;2023-04-25T12:06:29;2.53;;;1.60;;
76459;SDS011;65299;46.084;18.762;2023-04-25T12:09:30;2.33;;;1.30;;
76459;SDS011;65299;46.084;18.762;2023-04-25T12:12:32;2.10;;;1.13;;
76459;SDS011;65299;46.084;18.762;2023-04-25T12:15:33;3.80;;;1.02;;
76459;SDS011;65299;46.084;18.762;2023-04-25T12:18:35;3.50;;;0.80;;
76459;SDS011;65299;46.084;18.762;2023-04-25T12:21:36;1.40;;;1.10;;
76459;SDS011;65299;46.084;18.762;2023-04-25T12:24:36;2.03;;;1.20;;
76459;SDS011;65299;46.084;18.762;2023-04-25T12:27:37;1.00;;;0.90;;
76459;SDS011;65299;46.084;18.762;2023-04-25T12:34:04;3.30;;;0.80;;
76459;SDS011;65299;46.084;18.762;2023-04-25T12:37:04;2.17;;;1.07;;
76459;SDS011;65299;46.084;18.762;2023-04-25T12:40:05;2.08;;;0.80;;
76459;SDS011;65299;46.084;18.762;2023-04-25T12:43:06;1.67;;;1.02;;
76459;SDS011;65299;46.084;18.762;2023-04-25T12:46:06;1.23;;;0.90;;
76459;SDS011;65299;46.084;18.762;2023-04-25T12:49:07;2.93;;;1.10;;
76459;SDS011;65299;46.084;18.762;2023-04-25T12:52:08;1.35;;;0.73;;
76459;SDS011;65299;46.084;18.762;2023-04-25T12:55:09;1.70;;;1.00;;
76459;SDS011;65299;46.084;18.762;2023-04-25T12:58:09;1.55;;;0.80;;
76459;SDS011;65299;46.084;18.762;2023-04-25T13:01:10;1.57;;;1.20;;
76459;SDS011;65299;46.084;18.762;2023-04-25T13:04:12;1.67;;;1.08;;
76459;SDS011;65299;46.084;18.762;2023-04-25T13:07:12;2.90;;;0.60;;
76459;SDS011;65299;46.084;18.762;2023-04-25T13:10:13;1.20;;;0.97;;
76459;SDS011;65299;46.084;18.762;2023-04-25T13:13:13;2.00;;;1.20;;
76459;SDS011;65299;46.084;18.762;2023-04-25T13:16:13;1.13;;;0.80;;
76459;SDS011;65299;46.084;18.762;2023-04-25T13:19:14;1.93;;;0.97;;
76459;SDS011;65299;46.084;18.762;2023-04-25T13:22:14;1.97;;;1.00;;
76459;SDS011;65299;46.084;18.762;2023-04-25T13:25:16;1.85;;;1.02;;
76459;SDS011;65299;46.084;18.762;2023-04-25T13:28:17;1.27;;;0.80;;
76459;SDS011;65299;46.084;18.762;2023-04-25T13:31:18;2.25;;;1.17;;
76459;SDS011;65299;46.084;18.762;2023-04-25T13:34:19;2.47;;;1.10;;
76459;SDS011;65299;46.084;18.762;2023-04-25T13:37:19;2.87;;;1.03;;
76459;SDS011;65299;46.084;18.762;2023-04-25T13:40:20;1.80;;;1.00;;
76459;SDS011;65299;46.084;18.762;2023-04-25T13:43:20;4.53;;;0.93;;
76459;SDS011;65299;46.084;18.762;2023-04-25T13:46:24;1.45;;;0.80;;
76459;SDS011;65299;46.084;18.762;2023-04-25T13:49:25;1.63;;;1.00;;
76459;SDS011;65299;46.084;18.762;2023-04-25T13:52:25;1.73;;;0.95;;
76459;SDS011;65299;46.084;18.762;2023-04-25T13:55:26;2.07;;;1.17;;
76459;SDS011;65299;46.084;18.762;2023-04-25T13:58:26;1.10;;;0.80;;
76459;SDS011;65299;46.084;18.762;2023-04-25T14:01:26;0.83;;;0.70;;
76459;SDS011;65299;46.084;18.762;2023-04-25T14:04:28;3.92;;;1.02;;
76459;SDS011;65299;46.084;18.762;2023-04-25T14:07:28;3.85;;;1.20;;
76459;SDS011;65299;46.084;18.762;2023-04-25T14:10:29;4.60;;;1.20;;
76459;SDS011;65299;46.084;18.762;2023-04-25T14:13:29;1.20;;;0.93;;
76459;SDS011;65299;46.084;18.762;2023-04-25T14:16:30;1.17;;;1.00;;
76459;SDS011;65299;46.084;18.762;2023-04-25T14:19:31;0.80;;;0.77;;
76459;SDS011;65299;46.084;18.762;2023-04-25T14:22:32;1.23;;;1.07;;
76459;SDS011;65299;46.084;18.762;2023-04-25T14:25:32;1.17;;;1.02;;
76459;SDS011;65299;46.084;18.762;2023-04-25T14:28:32;1.20;;;0.90;;
76459;SDS011;65299;46.084;18.762;2023-04-25T14:31:33;1.87;;;1.00;;
76459;SDS011;65299;46.084;18.762;2023-04-25T14:34:33;1.90;;;0.93;;
76459;SDS011;65299;46.084;18.762;2023-04-25T14:37:34;2.20;;;1.30;;
76459;SDS011;65299;46.084;18.762;2023-04-25T14:40:34;1.10;;;1.00;;
76459;SDS011;65299;46.084;18.762;2023-04-25T14:43:35;2.03;;;0.90;;
76459;SDS011;65299;46.084;18.762;2023-04-25T14:46:36;7.13;;;0.98;;
76459;SDS011;65299;46.084;18.762;2023-04-25T14:49:36;1.30;;;0.80;;
76459;SDS011;65299;46.084;18.762;2023-04-25T14:52:37;1.05;;;0.70;;
76459;SDS011;65299;46.084;18.762;2023-04-25T14:55:38;1.67;;;0.70;;
76459;SDS011;65299;46.084;18.762;2023-04-25T14:58:39;1.15;;;0.88;;
76459;SDS011;65299;46.084;18.762;2023-04-25T15:01:40;1.57;;;0.80;;
76459;SDS011;65299;46.084;18.762;2023-04-25T15:04:41;3.05;;;1.10;;
76459;SDS011;65299;46.084;18.762;2023-04-25T15:07:41;3.90;;;1.43;;
76459;SDS011;65299;46.084;18.762;2023-04-25T15:10:42;1.50;;;1.27;;
76459;SDS011;65299;46.084;18.762;2023-04-25T15:13:42;1.50;;;1.30;;
76459;SDS011;65299;46.084;18.762;2023-04-25T15:16:43;1.40;;;1.30;;
76459;SDS011;65299;46.084;18.762;2023-04-25T15:19:43;3.25;;;1.60;;
76459;SDS011;65299;46.084;18.762;2023-04-25T15:22:44;2.17;;;1.40;;
76459;SDS011;65299;46.084;18.762;2023-04-25T15:25:45;1.25;;;1.10;;
76459;SDS011;65299;46.084;18.762;2023-04-25T15:28:47;1.27;;;0.65;;
76459;SDS011;65299;46.084;18.762;2023-04-25T15:31:48;1.35;;;1.08;;
76459;SDS011;65299;46.084;18.762;2023-04-25T15:34:48;1.50;;;1.00;;
76459;SDS011;65299;46.084;18.762;2023-04-25T15:37:50;1.67;;;1.08;;
76459;SDS011;65299;46.084;18.762;2023-04-25T15:40:51;2.55;;;1.10;;
76459;SDS011;65299;46.084;18.762;2023-04-25T15:43:52;1.60;;;0.90;;
76459;SDS011;65299;46.084;18.762;2023-04-25T15:46:53;1.98;;;1.10;;
76459;SDS011;65299;46.084;18.762;2023-04-25T15:49:54;2.27;;;0.90;;
76459;SDS011;65299;46.084;18.762;2023-04-25T15:52:54;1.33;;;0.77;;
76459;SDS011;65299;46.084;18.762;2023-04-25T15:55:54;3.53;;;0.70;;
76459;SDS011;65299;46.084;18.762;2023-04-25T15:58:55;1.93;;;0.90;;
76459;SDS011;65299;46.084;18.762;2023-04-25T16:01:55;1.17;;;0.50;;
76459;SDS011;65299;46.084;18.762;2023-04-25T16:04:56;1.30;;;0.77;;
76459;SDS011;65299;46.084;18.762;2023-04-25T16:07:56;6.00;;;1.10;;
76459;SDS011;65299;46.084;18.762;2023-04-25T16:10:57;2.27;;;1.20;;
76459;SDS011;65299;46.084;18.762;2023-04-25T16:13:57;1.55;;;0.98;;
76459;SDS011;65299;46.084;18.762;2023-04-25T16:16:58;2.23;;;0.77;;
76459;SDS011;65299;46.084;18.762;2023-04-25T16:19:58;2.83;;;1.20;;
76459;SDS011;65299;46.084;18.762;2023-04-25T16:23:02;2.13;;;1.60;;
76459;SDS011;65299;46.084;18.762;2023-04-25T16:26:02;2.33;;;1.83;;
76459;SDS011;65299;46.084;18.762;2023-04-25T16:29:03;1.85;;;1.30;;
76459;SDS011;65299;46.084;18.762;2023-04-25T16:32:03;2.47;;;1.30;;
76459;SDS011;65299;46.084;18.762;2023-04-25T16:35:04;3.45;;;1.60;;
76459;SDS011;65299;46.084;18.762;2023-04-25T16:38:05;1.95;;;1.50;;
76459;SDS011;65299;46.084;18.762;2023-04-25T16:41:06;1.83;;;1.60;;
76459;SDS011;65299;46.084;18.762;2023-04-25T16:44:06;1.60;;;1.50;;
76459;SDS011;65299;46.084;18.762;2023-04-25T16:47:08;2.88;;;1.55;;
76459;SDS011;65299;46.084;18.762;2023-04-25T16:50:08;2.03;;;1.70;;
76459;SDS011;65299;46.084;18.762;2023-04-25T16:53:09;2.47;;;1.80;;
76459;SDS011;65299;46.084;18.762;2023-04-25T16:56:09;2.30;;;1.77;;
76459;SDS011;65299;46.084;18.762;2023-04-25T16:59:10;2.73;;;2.10;;
76459;SDS011;65299;46.084;18.762;2023-04-25T17:02:10;3.00;;;2.10;;
76459;SDS011;65299;46.084;18.762;2023-04-25T17:05:11;4.28;;;2.08;;
76459;SDS011;65299;46.084;18.762;2023-04-25T17:08:12;2.13;;;1.13;;
76459;SDS011;65299;46.084;18.762;2023-04-25T17:11:12;1.23;;;1.03;;
76459;SDS011;65299;46.084;18.762;2023-04-25T17:14:13;1.20;;;1.07;;
76459;SDS011;65299;46.084;18.762;2023-04-25T17:17:13;1.40;;;1.10;;
76459;SDS011;65299;46.084;18.762;2023-04-25T17:20:14;4.32;;;2.50;;
76459;SDS011;65299;46.084;18.762;2023-04-25T17:23:14;4.00;;;1.80;;
76459;SDS011;65299;46.084;18.762;2023-04-25T17:26:15;5.27;;;2.67;;
76459;SDS011;65299;46.084;18.762;2023-04-25T17:29:15;5.50;;;3.40;;
76459;SDS011;65299;46.084;18.762;2023-04-25T17:32:16;3.10;;;2.13;;
76459;SDS011;65299;46.084;18.762;2023-04-25T17:35:16;5.57;;;3.97;;
76459;SDS011;65299;46.084;18.762;2023-04-25T17:38:17;5.27;;;2.80;;
76459;SDS011;65299;46.084;18.762;2023-04-25T17:41:17;3.72;;;2.20;;
76459;SDS011;65299;46.084;18.762;2023-04-25T17:44:17;3.80;;;2.73;;
76459;SDS011;65299;46.084;18.762;2023-04-25T17:47:18;5.57;;;3.20;;
76459;SDS011;65299;46.084;18.762;2023-04-25T17:50:18;7.67;;;4.07;;
76459;SDS011;65299;46.084;18.762;2023-04-25T17:53:19;10.43;;;3.75;;
76459;SDS011;65299;46.084;18.762;2023-04-25T17:56:20;5.93;;;3.10;;
76459;SDS011;65299;46.084;18.762;2023-04-25T17:59:20;6.32;;;3.40;;